Airfield :
LOGIN :

Register | Disclaimer

   EN    FR    IT 

 










Legend :    VFR   Marginal VFR   IFR   Intensive IFR   Very Intensive IFR
Visi :
Ceiling :
>= 8 km
>= 3000ft
5 to 8 km
1000 to 3000 ft
1500m to 5 km
500 to 1000 ft
800 to 1500m
200 to 500 ft
< 800m
< 200 ft
Symbols :   Thunderstorms  Fog  Heavy snow  Heavy precipitations  Wind > 20 kt
SIGMETs :     Misc.  Thunderstorms  Icing  Turbulence  Mountain Waves  Volcanic Ashes







- Airport Elevation : 1084 ft
- IATA code : EPL
- Download approach charts


LFSG - Épinal-Mirecourt

CURRENT METAR :
  • 202100Z AUTO VRB02KT CAVOK 04/02 Q1005

EXPIRED METARs :
  • 202030Z AUTO 22004KT 180V240 9999 FEW026 SCT037 OVC056 04/02 Q1006
  • 202000Z AUTO 21003KT 170V260 9999 -RA SCT027 BKN041 BKN047 04/02 Q1005
  • 201930Z AUTO 16007KT 9999 -RA BKN026 BKN034 OVC070 04/02 Q1005
  • 201900Z AUTO 11003KT 9999 OVC028 04/01 Q1005
  • 201830Z AUTO 14004KT 9999 BKN032 OVC070 04/01 Q1004

TAF N/A
No reported NOTAMs for that airfield.



MET'MAP, your aeronautical weather chart ! - Copyright ORBIFLY December 2007 - Disclaimer

ORBIFLY MET'MAP TEAM :

Programming & Development : Alexandra Zaïnal
Concept & Development : Baudouin d'Aumeries
Co-Development & Prog : Marc-Olivier Méhu
Technical & hardware support : Manuel Goepfert

Contact : metmap@orbifly.com




SOURCES & CREDITS :

   NOAA